Time;durP1;ratioP1;P1;durP2;ratioP2;P2;SDS_P1;SDS_P2;PMS_P1;PMS_P2;Temp;Humidity;BMP_temperature;BMP_pressure;BME280_temperature;BME280_humidity;BME280_pressure;Samples;Min_cycle;Max_cycle;Signal;HPM_P1;HPM_P2
2022/05/15 00:01:13;;;;;;;12.50;3.70;;;;;;;17.97;47.21;98260.47;8446030;28;20276;-74
2022/05/15 00:05:15;;;;;;;7.63;4.23;;;;;;;17.89;47.13;98271.50;8471088;28;20520;-74
2022/05/15 00:09:20;;;;;;;9.27;3.83;;;;;;;17.83;47.24;98258.81;8480600;28;20229;-74
2022/05/15 00:13:23;;;;;;;7.93;4.20;;;;;;;17.67;47.56;98266.88;8471578;28;20221;-75
2022/05/15 00:17:26;;;;;;;9.90;4.33;;;;;;;17.57;47.68;98265.81;8480345;28;20225;-74
2022/05/15 00:21:29;;;;;;;10.97;3.97;;;;;;;17.58;47.95;98264.91;8480495;28;20233;-75
2022/05/15 00:25:33;;;;;;;5.73;3.53;;;;;;;17.49;47.83;98265.50;8480453;28;20240;-75
2022/05/15 00:29:37;;;;;;;9.07;3.60;;;;;;;17.50;48.42;98267.22;8480369;28;20232;-75
2022/05/15 00:33:40;;;;;;;8.87;3.50;;;;;;;17.34;49.19;98267.38;8483682;28;20335;-75
2022/05/15 00:37:43;;;;;;;8.67;3.67;;;;;;;17.28;48.64;98265.19;8486966;28;20512;-74
2022/05/15 00:41:47;;;;;;;8.33;3.87;;;;;;;17.32;48.69;98254.41;8486658;28;20229;-75
2022/05/15 00:45:50;;;;;;;7.40;3.70;;;;;;;17.12;48.81;98260.97;8486581;28;20232;-74
2022/05/15 00:49:54;;;;;;;7.13;3.70;;;;;;;17.06;48.81;98256.16;8486568;28;20415;-75
2022/05/15 00:54:00;;;;;;;8.73;3.97;;;;;;;17.10;48.69;98256.78;8486432;28;20233;-73
2022/05/15 00:58:09;;;;;;;8.43;3.80;;;;;;;16.87;49.13;98258.28;8486306;28;20229;-74
2022/05/15 01:02:13;;;;;;;16.27;3.87;;;;;;;16.93;49.03;98257.91;8486074;28;20233;-74
2022/05/15 01:06:16;;;;;;;8.70;3.43;;;;;;;16.92;49.32;98262.28;8485919;28;20312;-74
2022/05/15 01:10:20;;;;;;;5.57;3.27;;;;;;;16.74;49.68;98261.69;8485894;28;20229;-74
2022/05/15 01:14:25;;;;;;;10.13;3.70;;;;;;;16.87;49.45;98256.53;8485114;28;20236;-74
2022/05/15 01:18:32;;;;;;;7.60;3.60;;;;;;;16.74;49.90;98260.84;8485509;28;20547;-74
2022/05/15 01:22:37;;;;;;;5.47;3.27;;;;;;;16.79;49.86;98251.78;8485247;28;20237;-74
2022/05/15 01:26:40;;;;;;;7.50;3.93;;;;;;;16.73;49.78;98257.38;8485236;28;20232;-74
2022/05/15 01:30:45;;;;;;;7.07;3.57;;;;;;;16.73;49.79;98259.16;8485191;28;20229;-74
2022/05/15 01:34:47;;;;;;;11.33;3.77;;;;;;;16.67;50.01;98255.16;8485098;28;20225;-75
2022/05/15 01:38:52;;;;;;;8.13;4.07;;;;;;;16.54;50.05;98246.44;8484935;28;20229;-74
2022/05/15 01:42:55;;;;;;;9.00;3.73;;;;;;;16.47;50.13;98250.38;8484463;28;20232;-74
2022/05/15 01:46:58;;;;;;;6.13;3.83;;;;;;;16.41;50.35;98248.97;8484697;28;20232;-74
2022/05/15 01:51:01;;;;;;;7.30;3.70;;;;;;;16.36;50.12;98254.53;8484499;28;20225;-75
2022/05/15 01:55:07;;;;;;;8.63;3.97;;;;;;;16.25;50.34;98262.19;8484440;28;20229;-75
2022/05/15 01:59:10;;;;;;;8.43;4.37;;;;;;;16.21;50.03;98255.47;8484197;28;20297;-75
2022/05/15 02:03:13;;;;;;;8.50;4.20;;;;;;;16.16;50.09;98257.53;8483771;28;20237;-74
2022/05/15 02:07:16;;;;;;;6.97;3.83;;;;;;;16.16;49.74;98261.00;8483940;28;20241;-75
2022/05/15 02:11:20;;;;;;;7.00;4.07;;;;;;;16.09;49.94;98251.00;8483994;28;20231;-74
2022/05/15 02:15:24;;;;;;;5.03;3.90;;;;;;;16.08;50.14;98257.19;8457897;28;20229;-74
2022/05/15 02:19:27;;;;;;;7.07;3.77;;;;;;;16.07;49.69;98253.75;8449946;28;20317;-74
2022/05/15 02:23:29;;;;;;;6.93;4.13;;;;;;;16.04;49.86;98253.91;8449753;28;20432;-74
2022/05/15 02:27:34;;;;;;;7.07;4.00;;;;;;;16.00;49.93;98250.66;8449717;28;20241;-75
2022/05/15 02:31:36;;;;;;;7.20;3.80;;;;;;;15.86;50.26;98242.84;8449457;28;20233;-75
2022/05/15 02:35:39;;;;;;;6.97;4.27;;;;;;;15.83;50.37;98249.09;8449267;28;20237;-75
2022/05/15 02:39:42;;;;;;;7.37;4.03;;;;;;;15.87;49.96;98254.97;8449373;28;20237;-74
2022/05/15 02:43:47;;;;;;;5.70;3.90;;;;;;;15.83;50.14;98258.69;8449063;28;20226;-74
2022/05/15 02:47:51;;;;;;;5.03;3.90;;;;;;;15.75;50.16;98260.94;8449036;28;20232;-75
2022/05/15 02:51:54;;;;;;;9.33;4.33;;;;;;;15.83;50.21;98254.31;8448951;28;20233;-75
2022/05/15 02:55:57;;;;;;;6.40;4.00;;;;;;;15.72;50.68;98254.09;8448345;28;20225;-74
2022/05/15 03:00:01;;;;;;;7.30;3.90;;;;;;;15.60;50.69;98253.06;8448545;28;20221;-74
2022/05/15 03:04:05;;;;;;;6.87;3.83;;;;;;;15.65;50.49;98255.41;8448359;28;20426;-75
2022/05/15 03:08:08;;;;;;;7.00;4.17;;;;;;;15.59;50.42;98246.19;8448351;28;20252;-75
2022/05/15 03:12:11;;;;;;;8.47;3.77;;;;;;;15.57;50.38;98255.88;8448341;28;20230;-74
2022/05/15 03:16:18;;;;;;;7.30;3.63;;;;;;;15.59;50.26;98254.00;8448084;28;20551;-74
2022/05/15 03:20:27;;;;;;;9.47;4.03;;;;;;;15.45;50.74;98254.81;8448115;28;20308;-74
2022/05/15 03:24:30;;;;;;;6.97;3.53;;;;;;;15.40;50.75;98262.09;8447364;28;20256;-74
2022/05/15 03:28:33;;;;;;;7.87;3.97;;;;;;;15.49;50.36;98262.47;8447896;28;20391;-75
2022/05/15 03:32:38;;;;;;;6.97;3.93;;;;;;;15.48;50.65;98252.94;8447600;28;20454;-74
2022/05/15 03:36:42;;;;;;;6.20;3.73;;;;;;;15.28;50.98;98257.59;8447619;28;20226;-74
2022/05/15 03:40:45;;;;;;;6.07;4.00;;;;;;;15.41;50.80;98252.50;8447591;28;20222;-76
2022/05/15 03:44:48;;;;;;;9.20;4.33;;;;;;;15.38;50.99;98255.28;8447365;28;20230;-74
2022/05/15 03:48:53;;;;;;;5.93;4.00;;;;;;;15.36;51.04;98262.34;8447420;28;20427;-74
2022/05/15 03:52:56;;;;;;;5.80;3.90;;;;;;;15.35;50.93;98258.09;8447163;28;20233;-75
2022/05/15 03:56:59;;;;;;;8.03;3.83;;;;;;;15.33;51.07;98271.22;8447307;28;20226;-74
2022/05/15 04:01:02;;;;;;;6.67;3.80;;;;;;;15.35;51.05;98269.34;8444298;28;20226;-74
2022/05/15 04:05:09;;;;;;;7.97;3.90;;;;;;;15.29;51.37;98274.06;8443949;28;20258;-75
2022/05/15 04:09:12;;;;;;;5.60;3.93;;;;;;;15.29;50.65;98266.25;8476140;28;20233;-75
2022/05/15 04:13:15;;;;;;;4.77;3.67;;;;;;;15.37;51.37;98264.06;8487908;28;20232;-75
2022/05/15 04:17:18;;;;;;;8.90;4.47;;;;;;;15.29;51.43;98264.50;8487643;28;20241;-75
2022/05/15 04:21:23;;;;;;;6.97;3.97;;;;;;;15.41;51.22;98262.94;8487684;28;20244;-74
2022/05/15 04:25:26;;;;;;;10.37;4.30;;;;;;;15.33;51.16;98258.16;8486953;28;20229;-74
2022/05/15 04:29:29;;;;;;;6.63;4.40;;;;;;;15.39;51.15;98257.78;8487311;28;20229;-74
2022/05/15 04:33:32;;;;;;;15.57;4.87;;;;;;;15.55;50.82;98265.53;8487035;28;20419;-74
2022/05/15 04:37:39;;;;;;;7.03;4.53;;;;;;;15.55;51.17;98267.31;8487235;28;20413;-75
2022/05/15 04:41:41;;;;;;;4.97;4.23;;;;;;;15.55;51.89;98269.94;8486965;28;20245;-75
2022/05/15 04:45:45;;;;;;;7.03;4.30;;;;;;;15.62;51.52;98285.13;8486713;28;20237;-75
2022/05/15 04:49:49;;;;;;;7.30;4.63;;;;;;;15.70;51.51;98279.44;8486486;28;20221;-75
2022/05/15 04:53:54;;;;;;;9.13;4.40;;;;;;;15.74;51.68;98280.13;8486608;28;20237;-74
2022/05/15 04:57:58;;;;;;;7.30;4.20;;;;;;;15.79;52.03;98289.38;8486478;28;20217;-75
2022/05/15 05:02:03;;;;;;;8.57;4.73;;;;;;;15.95;51.63;98297.09;8486059;28;20536;-75
2022/05/15 05:06:06;;;;;;;8.37;4.47;;;;;;;15.88;52.45;98292.34;8481631;28;20234;-74
2022/05/15 05:10:11;;;;;;;6.17;4.30;;;;;;;16.13;51.65;98282.09;8451930;28;20226;-74
2022/05/15 05:14:15;;;;;;;6.10;4.20;;;;;;;16.18;51.94;98281.78;8451996;28;20632;-75
2022/05/15 05:18:19;;;;;;;11.40;4.13;;;;;;;16.36;52.04;98290.28;8451493;28;20340;-75
2022/05/15 05:22:22;;;;;;;9.23;4.83;;;;;;;16.49;52.20;98293.78;8420450;28;20246;-74
2022/05/15 05:26:26;;;;;;;6.13;4.40;;;;;;;16.60;52.19;98293.09;8417824;28;20230;-75
2022/05/15 05:30:29;;;;;;;11.93;4.60;;;;;;;16.73;51.68;98298.38;8417882;28;20242;-74
2022/05/15 05:34:32;;;;;;;8.17;4.40;;;;;;;16.91;51.36;98305.09;8417704;28;20231;-75
2022/05/15 05:38:35;;;;;;;8.00;4.40;;;;;;;17.02;51.61;98316.63;8417649;28;20226;-75
2022/05/15 05:42:40;;;;;;;8.07;3.83;;;;;;;17.12;51.27;98310.69;8417228;28;20226;-75
2022/05/15 05:46:43;;;;;;;9.17;4.17;;;;;;;17.21;51.58;98311.88;8417476;28;20440;-74
2022/05/15 05:50:46;;;;;;;8.17;4.00;;;;;;;17.37;51.54;98314.31;8417299;28;20237;-76
2022/05/15 05:54:49;;;;;;;7.37;4.00;;;;;;;17.65;50.47;98315.06;8417186;28;20258;-75
2022/05/15 05:58:53;;;;;;;9.07;4.10;;;;;;;17.90;49.68;98312.47;8426662;28;20226;-75
2022/05/15 06:04:39;;;;;;;8.67;3.97;;;;;;;18.05;49.38;98312.34;8450490;28;20442;-75
2022/05/15 06:07:22;;;;;;;7.77;3.67;;;;;;;18.35;49.36;98307.59;8450419;28;20229;-75
2022/05/15 06:11:25;;;;;;;9.73;4.40;;;;;;;18.43;48.44;98303.56;8449980;28;20457;-74
2022/05/15 06:15:29;;;;;;;9.27;4.30;;;;;;;18.70;48.46;98306.03;8450015;28;20237;-75
2022/05/15 06:19:33;;;;;;;8.43;4.10;;;;;;;18.91;47.22;98307.13;8450040;28;20244;-75
2022/05/15 06:23:36;;;;;;;8.77;3.77;;;;;;;18.89;46.61;98301.16;8449633;28;20229;-74
2022/05/15 06:27:40;;;;;;;8.20;4.00;;;;;;;19.13;47.32;98300.28;8449631;28;20237;-74
2022/05/15 06:31:44;;;;;;;8.07;3.70;;;;;;;19.33;47.12;98296.19;8448833;28;20226;-74
2022/05/15 06:35:48;;;;;;;8.93;4.20;;;;;;;19.48;46.47;98299.44;8449398;28;20232;-75
2022/05/15 06:39:51;;;;;;;10.33;3.83;;;;;;;19.63;45.92;98295.66;8449471;28;20226;-74
2022/05/15 06:43:54;;;;;;;8.73;3.70;;;;;;;19.59;43.27;98298.63;8449129;28;20520;-74
2022/05/15 06:47:58;;;;;;;11.53;3.83;;;;;;;20.15;43.59;98303.13;8449277;28;20244;-74
2022/05/15 06:52:01;;;;;;;13.03;3.80;;;;;;;19.94;43.26;98303.84;8448692;28;20226;-74
2022/05/15 07:00:27;;;;;;;6.83;3.33;;;;;;;20.46;41.53;98302.34;8448183;28;20245;-73
2022/05/15 07:04:32;;;;;;;9.00;4.03;;;;;;;20.78;41.60;98309.50;8448289;28;20234;-74
2022/05/15 07:08:35;;;;;;;12.07;3.70;;;;;;;20.53;40.67;98309.78;8448509;28;20234;-74
2022/05/15 07:12:38;;;;;;;8.40;3.87;;;;;;;20.89;40.30;98311.28;8448235;28;20423;-75
2022/05/15 07:16:41;;;;;;;6.93;3.67;;;;;;;21.34;39.80;98305.78;8448320;28;20234;-74
2022/05/15 07:20:45;;;;;;;10.07;4.20;;;;;;;21.48;39.89;98297.63;8447969;28;20232;-74
2022/05/15 07:24:48;;;;;;;11.10;4.00;;;;;;;21.71;39.41;98300.13;8434224;28;20346;-75
2022/05/15 07:28:51;;;;;;;12.63;3.70;;;;;;;21.74;39.11;98296.38;8414160;28;20230;-74
2022/05/15 07:32:54;;;;;;;11.93;4.20;;;;;;;21.84;38.34;98300.75;8426091;28;20253;-74
2022/05/15 07:36:59;;;;;;;10.73;3.30;;;;;;;22.43;38.00;98293.09;8444686;28;20304;-74
2022/05/15 07:41:02;;;;;;;11.03;3.50;;;;;;;22.51;36.58;98295.03;8447512;28;20237;-74
2022/05/15 07:45:09;;;;;;;9.47;3.13;;;;;;;23.13;36.77;98299.19;8447367;28;20234;-75
2022/05/15 07:49:13;;;;;;;12.33;3.93;;;;;;;23.07;35.00;98299.72;8447635;28;20550;-73
2022/05/15 07:53:18;;;;;;;8.60;3.40;;;;;;;22.99;34.81;98297.72;8447451;28;20232;-74
2022/05/15 07:57:21;;;;;;;8.87;3.37;;;;;;;23.79;35.32;98290.44;8447343;28;20416;-75
2022/05/15 08:01:23;;;;;;;6.73;3.20;;;;;;;24.02;33.29;98294.56;8446814;28;20234;-75
2022/05/15 08:09:51;;;;;;;8.27;3.50;;;;;;;24.44;33.99;98288.78;8447182;28;20233;-75
2022/05/15 08:13:54;;;;;;;11.90;3.50;;;;;;;24.24;33.80;98290.69;8447170;28;20232;-74
2022/05/15 08:23:33;;;;;;;6.93;3.33;;;;;;;24.78;33.97;98287.19;8443112;28;20240;-74
2022/05/15 08:26:44;;;;;;;8.33;3.37;;;;;;;24.42;32.53;98282.81;8479892;28;20236;-72
2022/05/15 08:30:47;;;;;;;9.17;3.33;;;;;;;24.64;32.96;98285.06;8479728;28;20225;-75
2022/05/15 08:34:50;;;;;;;5.03;2.80;;;;;;;25.15;31.81;98280.91;8480439;28;20229;-72
2022/05/15 08:38:53;;;;;;;8.90;3.30;;;;;;;25.67;32.08;98281.97;8480258;28;20232;-74
2022/05/15 08:42:58;;;;;;;6.43;3.07;;;;;;;25.63;31.71;98286.75;8480484;28;20226;-75
2022/05/15 08:47:17;;;;;;;6.97;3.10;;;;;;;26.38;31.30;98275.53;8480028;28;20225;-74
2022/05/15 08:51:20;;;;;;;7.70;2.90;;;;;;;26.33;31.08;98276.03;8480201;28;20537;-74
2022/05/15 08:55:25;;;;;;;9.10;2.83;;;;;;;26.82;31.44;98279.81;8484027;28;20296;-74
2022/05/15 08:59:41;;;;;;;7.50;3.03;;;;;;;26.93;30.61;98279.50;8486115;28;20232;-74
2022/05/15 09:03:43;;;;;;;7.17;2.77;;;;;;;27.37;30.49;98278.38;8484873;28;20510;-74
2022/05/15 09:07:54;;;;;;;9.60;2.90;;;;;;;27.48;29.12;98278.03;8454445;28;20295;-74
2022/05/15 09:12:03;;;;;;;11.57;3.10;;;;;;;27.49;30.03;98271.72;8452224;28;20407;-74
2022/05/15 09:16:14;;;;;;;6.37;3.03;;;;;;;27.95;28.77;98274.66;8451917;28;20451;-73
2022/05/15 09:20:20;;;;;;;8.47;2.57;;;;;;;28.08;27.49;98274.94;8451975;28;20232;-73
2022/05/15 09:24:29;;;;;;;7.70;3.00;;;;;;;28.12;27.97;98269.25;8443076;28;20281;-72
2022/05/15 09:28:42;;;;;;;6.13;2.53;;;;;;;28.46;27.64;98268.91;8451431;28;20238;-73
2022/05/15 09:32:46;;;;;;;4.07;2.33;;;;;;;28.69;27.27;98260.97;8451386;28;20487;-72
2022/05/15 09:36:51;;;;;;;7.90;2.47;;;;;;;27.98;24.94;98265.47;8452092;28;20224;-75
2022/05/15 09:45:22;;;;;;;10.47;2.60;;;;;;;27.88;25.46;98270.97;8450770;28;20240;-74
2022/05/15 09:49:29;;;;;;;5.23;2.60;;;;;;;27.74;25.68;98269.00;8450506;28;20234;-73
2022/05/15 09:53:40;;;;;;;6.43;2.20;;;;;;;28.08;25.45;98263.44;8450673;28;20240;-75
2022/05/15 09:57:55;;;;;;;6.93;2.30;;;;;;;28.54;25.52;98252.94;8450765;28;20225;-74
2022/05/15 10:01:59;;;;;;;24.00;13.33;;;;;;;28.57;24.66;98249.09;8484315;28;20229;-74
2022/05/15 10:06:08;;;;;;;29.37;17.17;;;;;;;28.66;25.14;98245.38;8483974;28;20238;-73
2022/05/15 10:10:17;;;;;;;10.27;4.70;;;;;;;28.58;24.37;98242.75;8484116;28;20235;-73
2022/05/15 10:14:28;;;;;;;5.43;2.60;;;;;;;28.73;24.13;98240.13;8483587;28;20240;-73
2022/05/15 10:18:50;;;;;;;9.07;3.10;;;;;;;28.40;23.41;98235.81;8483457;28;20229;-75
2022/05/15 10:23:02;;;;;;;10.63;4.30;;;;;;;28.88;24.33;98227.69;8483604;28;20231;-74
2022/05/15 10:27:10;;;;;;;7.77;2.63;;;;;;;29.04;24.54;98224.09;8483365;28;20528;-74
2022/05/15 10:31:20;;;;;;;10.57;3.90;;;;;;;29.02;24.93;98223.44;8483235;28;20229;-74
2022/05/15 10:35:30;;;;;;;11.00;3.53;;;;;;;28.85;23.70;98209.41;8482809;28;20236;-74
2022/05/15 10:39:54;;;;;;;8.83;3.10;;;;;;;29.08;24.19;98201.38;8483228;28;20236;-74
2022/05/15 10:44:05;;;;;;;7.17;2.83;;;;;;;29.35;24.04;98210.66;8482852;28;20422;-76
2022/05/15 10:48:33;;;;;;;5.50;2.33;;;;;;;28.80;22.94;98201.13;8482661;28;20529;-73
2022/05/15 10:52:44;;;;;;;6.00;2.57;;;;;;;29.23;23.35;98199.59;8455159;28;20222;-73
2022/05/15 10:57:29;;;;;;;8.00;3.73;;;;;;;29.69;22.91;98187.94;8448491;28;20507;-74
2022/05/15 11:01:38;;;;;;;10.50;2.40;;;;;;;30.17;22.61;98184.88;8482080;28;20510;-73
2022/05/15 11:05:59;;;;;;;4.03;2.37;;;;;;;30.28;22.03;98183.56;8482005;28;20228;-75
2022/05/15 11:10:10;;;;;;;7.87;2.87;;;;;;;30.11;22.22;98169.59;8481979;28;20228;-74
2022/05/15 11:14:28;;;;;;;5.83;2.60;;;;;;;29.97;21.92;98173.97;8481960;28;20248;-74
2022/05/15 11:18:48;;;;;;;4.63;2.33;;;;;;;29.32;22.90;98179.03;8481246;28;20241;-74
2022/05/15 11:23:03;;;;;;;8.20;2.70;;;;;;;29.77;22.51;98163.84;8481941;28;20222;-74
2022/05/15 11:27:16;;;;;;;6.97;2.70;;;;;;;29.76;21.65;98166.72;8481695;28;20599;-74
2022/05/15 11:31:24;;;;;;;4.50;2.50;;;;;;;30.04;23.16;98164.19;8481962;28;20522;-74
2022/05/15 11:35:30;;;;;;;5.67;2.40;;;;;;;29.91;21.70;98156.00;8481120;28;20240;-74
2022/05/15 11:39:33;;;;;;;11.30;2.30;;;;;;;29.94;21.32;98152.97;8481500;28;20547;-73
2022/05/15 11:43:52;;;;;;;9.63;2.67;;;;;;;29.29;21.82;98146.56;8481367;28;20231;-75
2022/05/15 11:48:01;;;;;;;7.17;2.00;;;;;;;29.16;20.85;98147.19;8481021;28;20240;-75
2022/05/15 11:52:21;;;;;;;7.40;2.23;;;;;;;29.26;20.70;98147.75;8481297;28;20433;-75
2022/05/15 11:56:27;;;;;;;6.17;1.83;;;;;;;29.44;21.49;98139.38;8480494;28;20244;-75
2022/05/15 12:00:32;;;;;;;6.20;2.00;;;;;;;29.59;23.02;98134.06;8480952;28;20234;-73
2022/05/15 12:04:55;;;;;;;11.63;2.77;;;;;;;28.99;21.95;98143.81;8480726;28;20552;-75
2022/05/15 12:09:25;;;;;;;4.53;2.10;;;;;;;28.85;22.47;98134.81;8436452;28;20226;-74
2022/05/15 12:13:38;;;;;;;5.97;1.87;;;;;;;28.97;21.15;98128.00;8480168;28;20234;-74
2022/05/15 12:17:43;;;;;;;7.63;2.23;;;;;;;28.69;21.72;98125.09;8480695;28;20587;-74
2022/05/15 12:21:51;;;;;;;6.63;1.93;;;;;;;28.80;21.49;98129.16;8480508;28;20238;-74
2022/05/15 12:25:56;;;;;;;7.43;2.37;;;;;;;29.41;21.60;98121.91;8474014;28;20229;-74
2022/05/15 12:30:15;;;;;;;5.37;1.87;;;;;;;29.57;22.62;98123.56;8450541;28;20254;-81
2022/05/15 12:34:25;;;;;;;6.67;2.10;;;;;;;29.82;21.04;98113.41;8453584;28;20237;-74
2022/05/15 12:38:30;;;;;;;10.33;2.70;;;;;;;29.68;21.40;98114.22;8419364;28;20245;-73
2022/05/15 12:42:36;;;;;;;3.73;1.97;;;;;;;29.79;20.94;98108.44;8419924;28;20261;-72
2022/05/15 12:46:41;;;;;;;7.40;2.30;;;;;;;28.92;20.99;98113.56;8419698;28;20299;-73
2022/05/15 12:50:49;;;;;;;7.73;2.20;;;;;;;29.42;21.31;98109.41;8419687;28;20529;-74
2022/05/15 12:54:58;;;;;;;4.07;1.83;;;;;;;29.42;20.30;98102.22;8419529;28;20230;-74
2022/05/15 12:59:07;;;;;;;5.40;2.10;;;;;;;29.03;20.89;98095.31;8430157;28;20229;-74
2022/05/15 13:03:12;;;;;;;6.73;2.13;;;;;;;29.48;21.01;98095.31;8452528;28;20274;-74
2022/05/15 13:07:15;;;;;;;5.40;2.27;;;;;;;29.65;20.85;98089.78;8452511;28;20234;-74
2022/05/15 13:11:22;;;;;;;8.33;2.27;;;;;;;29.69;21.25;98088.41;8452497;28;20421;-70
2022/05/15 13:15:27;;;;;;;4.80;2.00;;;;;;;29.35;21.41;98082.63;8485659;28;20232;-72
2022/05/15 13:19:34;;;;;;;6.07;1.60;;;;;;;29.65;21.56;98085.28;8486063;28;20538;-71
2022/05/15 13:23:39;;;;;;;5.33;1.90;;;;;;;28.93;21.52;98070.75;8485854;28;20237;-73
2022/05/15 13:27:46;;;;;;;6.03;2.03;;;;;;;28.78;21.44;98069.91;8485737;28;20234;-71
2022/05/15 13:31:51;;;;;;;4.13;1.80;;;;;;;28.49;22.95;98070.66;8485355;28;20250;-72
2022/05/15 13:35:56;;;;;;;8.07;2.00;;;;;;;28.34;23.55;98076.75;8485389;28;20238;-71
2022/05/15 13:44:41;;;;;;;19.07;2.80;;;;;;;28.68;22.98;98061.34;8484648;28;20518;-71
2022/05/15 13:48:57;;;;;;;7.27;2.07;;;;;;;28.17;22.73;98059.25;8484720;28;20419;-71
2022/05/15 13:53:34;;;;;;;11.87;2.23;;;;;;;28.96;22.50;98053.56;8484646;28;20236;-71
2022/05/15 13:57:51;;;;;;;4.93;1.53;;;;;;;28.89;22.49;98053.47;8406800;28;20236;-70
2022/05/15 14:02:07;;;;;;;5.97;2.00;;;;;;;28.24;22.68;98049.56;8484642;28;20445;-73
2022/05/15 14:06:28;;;;;;;11.43;2.10;;;;;;;28.66;21.35;98048.22;8484002;28;20237;-74
2022/05/15 14:10:34;;;;;;;6.03;2.50;;;;;;;28.91;23.01;98034.63;8449939;28;20245;-73
2022/05/15 14:14:50;;;;;;;4.83;1.93;;;;;;;28.62;21.97;98030.94;8450050;28;20237;-73
2022/05/15 14:18:55;;;;;;;7.13;1.90;;;;;;;28.31;22.10;98031.84;8450185;28;20232;-73
2022/05/15 14:22:58;;;;;;;4.60;1.90;;;;;;;28.35;21.55;98026.97;8450368;28;20262;-74
2022/05/15 14:27:01;;;;;;;3.97;2.20;;;;;;;28.68;22.33;98026.72;8450184;28;20237;-74
2022/05/15 14:31:04;;;;;;;5.47;1.97;;;;;;;28.41;21.94;98032.44;8449610;28;20241;-74
2022/05/15 14:35:11;;;;;;;4.40;1.90;;;;;;;28.39;21.46;98021.13;8449759;28;20239;-74
2022/05/15 14:39:14;;;;;;;9.97;2.10;;;;;;;28.26;20.75;98031.56;8449685;28;20240;-74
2022/05/15 14:43:17;;;;;;;5.87;1.70;;;;;;;28.26;22.53;98027.06;8449625;28;20232;-75
2022/05/15 14:47:21;;;;;;;5.97;1.83;;;;;;;27.96;22.04;98022.63;8449244;28;20237;-74
2022/05/15 14:51:27;;;;;;;4.30;2.00;;;;;;;27.45;21.65;98021.25;8481602;28;20444;-74
2022/05/15 14:59:52;;;;;;;8.03;2.00;;;;;;;27.66;23.40;98011.81;8482422;28;20241;-75
2022/05/15 15:03:55;;;;;;;4.60;1.93;;;;;;;27.80;21.73;98018.25;8482500;28;20410;-76
2022/05/15 15:08:01;;;;;;;5.50;1.93;;;;;;;27.50;21.92;98004.78;8482281;28;20228;-75
2022/05/15 15:12:10;;;;;;;3.17;1.80;;;;;;;27.52;22.12;98007.28;8482338;28;20254;-74
2022/05/15 15:16:16;;;;;;;5.13;1.57;;;;;;;27.47;22.92;98007.78;8482038;28;20232;-75
2022/05/15 15:20:19;;;;;;;5.90;1.93;;;;;;;27.36;22.52;98005.50;8481959;28;20237;-75
2022/05/15 15:24:24;;;;;;;7.47;2.30;;;;;;;27.37;23.51;98001.84;8481495;28;20232;-74
2022/05/15 15:28:27;;;;;;;11.03;1.93;;;;;;;27.54;23.55;97995.44;8449452;28;20237;-74
2022/05/15 15:32:30;;;;;;;6.83;1.90;;;;;;;27.68;25.05;97996.50;8447944;28;20244;-74
2022/05/15 15:36:33;;;;;;;10.07;2.40;;;;;;;27.49;23.75;97992.47;8447816;28;20237;-74
2022/05/15 15:40:38;;;;;;;8.10;2.40;;;;;;;27.16;23.81;97994.44;8447754;28;20239;-74
2022/05/15 15:44:44;;;;;;;6.10;2.10;;;;;;;27.30;21.49;97985.75;8447714;28;20226;-74
2022/05/15 15:48:48;;;;;;;4.80;1.80;;;;;;;27.44;22.19;97982.38;8447516;28;20255;-74
2022/05/15 15:52:50;;;;;;;6.17;1.60;;;;;;;27.19;22.88;97973.66;8447576;28;20261;-75
2022/05/15 15:56:56;;;;;;;4.60;2.00;;;;;;;27.23;21.78;97976.81;8447833;28;20433;-74
2022/05/15 16:00:59;;;;;;;4.93;2.10;;;;;;;27.28;23.39;97979.78;8474829;28;20301;-75
2022/05/15 16:05:02;;;;;;;7.33;2.00;;;;;;;27.09;23.60;97968.56;8480878;28;20239;-73
2022/05/15 16:09:06;;;;;;;5.43;2.27;;;;;;;27.02;22.90;97972.91;8481160;28;20240;-74
2022/05/15 16:13:11;;;;;;;6.80;2.07;;;;;;;26.91;23.14;97971.44;8480785;28;20228;-75
2022/05/15 16:17:13;;;;;;;5.03;1.83;;;;;;;26.66;23.49;97965.41;8480700;28;20239;-77
2022/05/15 16:21:19;;;;;;;5.57;3.47;;;;;;;26.58;24.00;97960.09;8480815;28;20233;-73
2022/05/15 16:25:22;;;;;;;7.00;2.20;;;;;;;26.22;23.35;97960.47;8480435;28;20229;-72
2022/05/15 16:29:27;;;;;;;11.07;3.80;;;;;;;26.21;24.17;97952.69;8480410;28;20236;-73
2022/05/15 16:33:30;;;;;;;17.00;4.67;;;;;;;26.24;25.74;97945.22;8480718;28;20273;-73
2022/05/15 16:37:33;;;;;;;8.97;5.23;;;;;;;26.41;26.06;97948.66;8480563;28;20237;-73
2022/05/15 16:41:36;;;;;;;7.33;4.90;;;;;;;26.40;26.38;97939.03;8480587;28;20399;-74
2022/05/15 16:45:40;;;;;;;6.97;3.30;;;;;;;26.31;25.99;97940.03;8477304;28;20560;-75
2022/05/15 16:49:44;;;;;;;18.00;10.97;;;;;;;26.15;25.92;97943.56;8479991;28;20276;-74
2022/05/15 16:53:47;;;;;;;7.57;4.33;;;;;;;26.08;27.12;97937.25;8480273;28;20226;-74
2022/05/15 16:57:50;;;;;;;11.67;6.03;;;;;;;26.08;27.54;97935.47;8481578;28;20259;-74
2022/05/15 17:01:54;;;;;;;18.07;9.97;;;;;;;26.06;27.17;97932.13;8480118;28;20235;-75
2022/05/15 17:05:57;;;;;;;10.67;5.70;;;;;;;26.01;27.88;97931.81;8479802;28;20239;-76
2022/05/15 17:10:00;;;;;;;7.20;2.50;;;;;;;25.89;27.12;97931.28;8479918;28;20240;-75
2022/05/15 17:14:03;;;;;;;9.20;4.93;;;;;;;25.90;28.39;97934.75;8480560;28;20227;-77
2022/05/15 17:18:09;;;;;;;13.30;6.60;;;;;;;25.82;28.77;97924.16;8485934;28;20228;-75
2022/05/15 17:22:19;;;;;;;12.57;5.33;;;;;;;25.67;29.51;97919.50;8485538;28;20541;-75
2022/05/15 17:26:22;;;;;;;5.73;2.83;;;;;;;25.68;28.79;97921.19;8451668;28;20233;-74
2022/05/15 17:34:47;;;;;;;8.57;4.13;;;;;;;25.55;29.85;97924.31;8451758;28;20227;-75
2022/05/15 17:38:50;;;;;;;9.17;4.03;;;;;;;25.49;29.45;97916.16;8451769;28;20236;-75
2022/05/15 17:42:54;;;;;;;8.23;3.43;;;;;;;25.43;30.00;97916.81;8451744;28;20224;-76
2022/05/15 17:46:57;;;;;;;5.30;2.50;;;;;;;25.36;29.51;97917.50;8451256;28;20554;-75
2022/05/15 17:51:01;;;;;;;8.03;2.60;;;;;;;25.21;30.08;97919.09;8451228;28;20232;-75
2022/05/15 17:55:06;;;;;;;7.80;2.90;;;;;;;25.18;30.53;97920.22;8451228;28;20303;-75
2022/05/15 17:59:09;;;;;;;6.23;3.40;;;;;;;25.13;30.81;97924.34;8451044;28;20231;-76
2022/05/15 18:03:12;;;;;;;13.17;4.63;;;;;;;25.01;30.86;97920.34;8450552;28;20233;-76
2022/05/15 18:07:16;;;;;;;22.07;12.53;;;;;;;24.92;31.64;97917.69;8450721;28;20543;-78
2022/05/15 18:11:20;;;;;;;35.70;6.70;;;;;;;24.84;31.76;97919.44;8450521;28;20230;-74
2022/05/15 18:15:23;;;;;;;15.23;4.20;;;;;;;24.80;31.06;97926.06;8458098;28;20235;-76
2022/05/15 18:19:26;;;;;;;13.50;6.17;;;;;;;24.69;31.72;97921.88;8450237;28;20231;-73
2022/05/15 18:23:32;;;;;;;8.77;6.13;;;;;;;24.61;31.68;97930.59;8449953;28;20234;-77
2022/05/15 18:27:36;;;;;;;11.10;5.53;;;;;;;24.49;31.87;97931.84;8450527;28;20236;-74
2022/05/15 18:31:40;;;;;;;8.97;4.60;;;;;;;24.43;32.38;97921.88;8483627;28;20537;-76
2022/05/15 18:35:43;;;;;;;6.63;2.90;;;;;;;24.33;31.94;97921.97;8483402;28;20521;-75
2022/05/15 18:39:48;;;;;;;6.03;2.80;;;;;;;24.24;32.15;97925.56;8483338;28;20235;-76
2022/05/15 18:43:51;;;;;;;7.60;2.50;;;;;;;24.17;31.83;97926.19;8483080;28;20237;-76
2022/05/15 18:47:55;;;;;;;10.10;2.80;;;;;;;24.06;32.48;97933.53;8482732;28;20236;-76
2022/05/15 18:56:20;;;;;;;6.57;3.30;;;;;;;23.90;33.31;97921.03;8482566;28;20229;-76
2022/05/15 19:00:23;;;;;;;5.50;2.60;;;;;;;23.83;33.18;97927.91;8481803;28;20241;-76
2022/05/15 19:04:27;;;;;;;6.73;2.90;;;;;;;23.71;33.22;97924.66;8477248;28;20229;-75
2022/05/15 19:08:33;;;;;;;9.43;3.00;;;;;;;23.70;34.96;97926.44;8480234;28;20229;-75
2022/05/15 19:12:38;;;;;;;6.23;3.10;;;;;;;23.54;35.42;97924.50;8482074;28;20237;-74
2022/05/15 19:16:41;;;;;;;6.40;3.10;;;;;;;23.47;35.11;97935.81;8481825;28;20237;-74
2022/05/15 19:20:44;;;;;;;7.47;3.30;;;;;;;23.35;35.54;97943.97;8481628;28;20222;-74
2022/05/15 19:24:47;;;;;;;7.30;3.07;;;;;;;23.28;37.59;97942.06;8421697;28;20544;-75
2022/05/15 19:28:52;;;;;;;7.20;2.93;;;;;;;23.20;37.81;97942.81;8413998;28;20231;-75
2022/05/15 19:32:55;;;;;;;7.37;3.17;;;;;;;23.09;38.09;97943.00;8413468;28;20227;-75
2022/05/15 19:36:58;;;;;;;5.13;3.13;;;;;;;22.96;38.41;97944.19;8422203;28;20234;-75
2022/05/15 19:41:02;;;;;;;8.57;3.20;;;;;;;22.95;39.01;97950.41;8430347;28;20277;-75
2022/05/15 19:45:08;;;;;;;5.77;3.40;;;;;;;22.89;38.31;97956.28;8430165;28;20236;-75
2022/05/15 19:49:11;;;;;;;7.10;3.30;;;;;;;22.79;38.50;97958.97;8429736;28;20258;-75